Impacts METAR Board
IDs:

KSSF - San Antonio/Stinson, TX, US

Updated at: 0600 UTC 19 Aug 2019
Potential Impact None Slight Moderate High
Time 18/18Z 18/19Z 18/20Z 18/21Z 18/22Z 18/23Z 19/00Z 19/01Z 19/02Z 19/03Z 19/04Z 19/05Z 19/06Z
Temp94 99 100 102 103 103 101 96 92 89 86 85 83
Dewpt66 64 63 62 60 58 59 65 65 68 69 69 70
Altim29.89 29.86 29.84 29.82 29.80 29.79 29.78 29.80 29.83 29.86 29.90 29.92 29.92
VIS10 10 10 10 10 10 10 10 10 10 10 10 10
CIG42 -- -- -- -- -- -- -- -- -- -- -- --
CoverBKNFEWFEWCLRCLRFEWCLRCLRCLRCLRCLRCLRCLR
FltCatVFRVFRVFRVFRVFRVFRVFRVFRVFRVFRVFRVFRVFR
WX--------------------------
WDir2200160190190180130120130130130140140
WSpd7 5 11 9 7 6 9 15 12 15 14 10 9
WGst15 -- -- 15 14 -- -- -- -- 24 -- -- --
Raw hourly METARs
KSSF 181753Z 22007G15KT 190V250 10SM BKN042 34/19 A2989 RMK AO2 SLP106 T03440189 10350 20272 58004
KSSF 181853Z VRB05KT 10SM FEW050 37/18 A2986 RMK AO2 SLP096 T03720178
KSSF 181953Z 16011KT 10SM FEW060 38/17 A2984 RMK AO2 SLP088 T03780172
KSSF 182053Z 19009G15KT 10SM CLR 39/17 A2982 RMK AO2 SLP081 T03890167 56024
KSSF 182153Z 19007G14KT 10SM CLR 39/16 A2980 RMK AO2 SLP074 T03940156
KSSF 182253Z 18006KT 10SM FEW080 39/14 A2979 RMK AO2 SLP070 T03940144
KSSF 182353Z 13009KT 10SM CLR 38/15 A2978 RMK AO2 SLP070 T03830150 10400 20339 56011
KSSF 190053Z 12015KT 10SM CLR 36/18 A2980 RMK AO2 SLP076 T03560183
KSSF 190153Z 13012KT 10SM CLR 33/18 A2983 RMK AO2 PK WND 12026/0127 SLP085 T03330183
KSSF 190253Z AUTO 13015G24KT 10SM CLR 32/20 A2986 RMK AO2 SLP097 T03170200 53026
KSSF 190353Z AUTO 13014KT 10SM CLR 30/21 A2990 RMK AO2 SLP110 T03000206
KSSF 190453Z AUTO 14010KT 10SM CLR 29/21 A2992 RMK AO2 SLP117 T02940206 404000267
KSSF 190553Z AUTO 14009KT 10SM CLR 28/21 A2992 RMK AO2 SLP117 T02830211 10383 20283 51020



Page loaded:  06:05 UTC  |   11:05 PM Pacific  |   12:05 AM Mountain  |   01:05 AM Central  |   02:05 AM Eastern

 

ADVISORIES

FORECASTS

FORECASTS

OBSERVATIONS

USER TOOLS

ABOUT US